Weather at Punta Cana International Airport

Public forecast

Using degrees Celsius for public forecast. Weather courtesy of forecast.io.

Current aviation weather report (METAR) for Punta Cana International Airport

2024/07/21 08:00 (retrieved 8 minutes ago)

MDPC 210800Z 08008KT 9999 SCT018 28/25 Q1017

Closest aviation forecast (TAF) to Punta Cana International Airport

Closest forecast is Rafael Hern├índez International Airport, 70.4 nm (130.3 km) E.

2024/07/21 06:30 Ammendment (retrieved 2 hours ago)

TAF TJBQ 210524Z 2106/2206 11005KT 6SM HZ SKC FM211400 08018G28KT 6SM HZ SCT035 FM212200 08013KT P6SM FEW025 AMD NOT SKED TIL 211100